Ellsworth, Illinois
Current Conditions -  °F | °C
As of 2:56 PM on Tuesday 27 Jan 2015 (Local Time) from KBMI Reporting Station
Overcast Overcast  
Wind Chill: 25°   Ceiling: 2000
Heat Index: 32°   Visibility: 10mi
Dew Point: 27°   Wind: 8mph
Humidity: 82%   Direction: 40°NE
Pressure: 30.19"   Gusts: NA
Location:  40.45°N, 88.72°W
Report Text: KBMI 272056Z 04007KT 10SM OVC020 00/M03 A3019 RMK AO2 53011 T00001027 SLP239
Loading
Personal Weather Stations






























Interactive Weather Map New forecast layout! Learn more

10-Day Weather Forecast

Advertisements
Track Severe Weather on mobile